createdAt,value
2019-01-19T00:00:16.115Z,43.58
2019-01-19T00:02:56.987Z,43.63
2019-01-19T00:06:11.340Z,43.64
2019-01-19T00:09:17.692Z,43.64
2019-01-19T00:12:23.805Z,43.74
2019-01-19T00:15:18.417Z,43.79
2019-01-19T00:18:34.695Z,43.80
2019-01-19T00:21:42.866Z,43.73
2019-01-19T00:25:00.878Z,43.70
2019-01-19T00:28:05.896Z,43.65
2019-01-19T00:31:06.017Z,43.76
2019-01-19T00:34:00.957Z,43.71
2019-01-19T00:37:09.715Z,43.74
2019-01-19T00:40:17.444Z,43.82
2019-01-19T00:43:15.335Z,43.85
2019-01-19T00:46:21.667Z,43.79
2019-01-19T00:49:10.826Z,43.78
2019-01-19T00:52:23.334Z,43.80
2019-01-19T00:55:24.482Z,43.57
2019-01-19T00:58:29.336Z,43.72
2019-01-19T01:01:53.457Z,43.88
2019-01-19T01:05:02.240Z,43.72
2019-01-19T01:08:01.862Z,43.69
2019-01-19T01:10:46.864Z,43.79
2019-01-19T01:13:36.666Z,43.98
2019-01-19T01:16:44.067Z,44.16
2019-01-19T01:20:01.965Z,44.33
2019-01-19T01:23:26.809Z,44.39
2019-01-19T01:26:46.498Z,44.48
2019-01-19T01:29:56.063Z,44.48
2019-01-19T01:33:08.142Z,44.86
2019-01-19T01:36:32.226Z,45.28
2019-01-19T01:39:41.610Z,45.19
2019-01-19T01:42:53.301Z,45.35
2019-01-19T01:46:00.968Z,45.56
2019-01-19T01:48:56.365Z,45.97
2019-01-19T01:52:19.011Z,45.74
2019-01-19T01:55:28.406Z,45.54
2019-01-19T01:58:43.926Z,45.31
2019-01-19T02:02:03.783Z,45.44
2019-01-19T02:05:15.643Z,45.32
2019-01-19T02:08:02.267Z,45.24
2019-01-19T02:11:10.822Z,45.03
2019-01-19T02:14:16.622Z,45.00
2019-01-19T02:17:28.403Z,44.87
2019-01-19T02:20:34.966Z,44.88
2019-01-19T02:23:28.807Z,44.63
2019-01-19T02:26:55.718Z,44.69
2019-01-19T02:29:56.534Z,44.40
2019-01-19T02:32:49.891Z,44.53
2019-01-19T02:36:25.793Z,44.55
2019-01-19T02:39:48.059Z,44.54
2019-01-19T02:43:07.185Z,44.63
2019-01-19T02:46:03.050Z,44.56
2019-01-19T02:49:02.120Z,44.51
2019-01-19T02:52:20.267Z,44.41
2019-01-19T02:55:27.693Z,44.51
2019-01-19T02:58:26.352Z,44.37
2019-01-19T03:01:40.052Z,44.54
2019-01-19T03:04:21.354Z,44.46
2019-01-19T03:07:39.736Z,44.23
2019-01-19T03:10:53.841Z,44.40
2019-01-19T03:13:58.146Z,44.41
2019-01-19T03:17:00.359Z,44.34
2019-01-19T03:19:57.536Z,44.30
2019-01-19T03:23:13.014Z,44.16
2019-01-19T03:26:43.359Z,43.97
2019-01-19T03:29:46.926Z,44.04
2019-01-19T03:32:53.276Z,44.08
2019-01-19T03:35:39.678Z,44.32
2019-01-19T03:38:40.395Z,44.33
2019-01-19T03:41:40.376Z,44.46
2019-01-19T03:44:57.891Z,44.76
2019-01-19T03:48:05.514Z,44.53
2019-01-19T03:51:07.236Z,44.40
2019-01-19T03:53:58.286Z,44.30
2019-01-19T03:57:08.260Z,44.26
2019-01-19T04:00:31.077Z,44.27
2019-01-19T04:04:02.388Z,44.59
2019-01-19T04:07:11.683Z,44.73
2019-01-19T04:10:21.132Z,44.70
2019-01-19T04:13:33.176Z,44.52
2019-01-19T04:16:43.039Z,44.49
2019-01-19T04:19:54.865Z,44.53
2019-01-19T04:22:48.098Z,44.64
2019-01-19T04:25:33.643Z,44.74
2019-01-19T04:28:06.341Z,44.89
2019-01-19T04:30:38.575Z,44.85
2019-01-19T04:33:10.509Z,44.92
2019-01-19T04:35:45.044Z,45.09
2019-01-19T04:38:17.145Z,45.15
2019-01-19T04:40:49.095Z,45.28
2019-01-19T04:43:21.090Z,45.28
2019-01-19T04:45:57.141Z,44.75
2019-01-19T04:48:30.488Z,44.87
2019-01-19T04:51:02.595Z,44.78
2019-01-19T04:53:34.826Z,44.70
2019-01-19T04:56:06.560Z,44.71
2019-01-19T04:58:38.497Z,44.63
2019-01-19T05:01:10.492Z,44.41
2019-01-19T05:03:41.639Z,44.40
2019-01-19T05:06:20.458Z,44.40
2019-01-19T05:08:52.562Z,44.49
2019-01-19T05:11:24.620Z,44.50
2019-01-19T05:13:58.205Z,44.32
2019-01-19T05:16:30.438Z,44.12
2019-01-19T05:19:01.622Z,44.24
2019-01-19T05:21:32.806Z,44.36
2019-01-19T05:24:04.960Z,44.63
2019-01-19T05:26:36.926Z,44.70
2019-01-19T05:29:08.219Z,44.71
2019-01-19T05:31:39.356Z,44.59
2019-01-19T05:34:10.516Z,44.57
2019-01-19T05:36:42.905Z,44.60
2019-01-19T05:39:14.949Z,44.65
2019-01-19T05:41:46.966Z,44.55
2019-01-19T05:44:18.174Z,44.56
2019-01-19T05:46:52.247Z,44.56
2019-01-19T05:49:24.194Z,44.60
2019-01-19T05:51:56.445Z,44.56
2019-01-19T05:54:28.515Z,44.65
2019-01-19T05:57:02.970Z,44.74
2019-01-19T05:59:35.026Z,44.74
2019-01-19T06:02:09.141Z,44.73
2019-01-19T06:04:40.237Z,44.76
2019-01-19T06:07:14.693Z,44.55
2019-01-19T06:09:45.937Z,44.66
2019-01-19T06:12:19.614Z,44.88
2019-01-19T06:14:51.807Z,44.87
2019-01-19T06:17:23.861Z,44.79
2019-01-19T06:19:55.597Z,44.76
2019-01-19T06:22:26.738Z,44.70
2019-01-19T06:24:58.941Z,44.85
2019-01-19T06:27:34.077Z,44.74
2019-01-19T06:30:09.511Z,44.75
2019-01-19T06:32:41.981Z,44.59
2019-01-19T06:35:13.236Z,44.66
2019-01-19T06:37:48.219Z,44.62
2019-01-19T06:40:20.325Z,44.51
2019-01-19T06:42:51.583Z,44.47
2019-01-19T06:45:25.829Z,44.48
2019-01-19T06:48:00.187Z,44.51
2019-01-19T06:50:32.164Z,44.56
2019-01-19T06:53:03.651Z,44.63
2019-01-19T06:55:37.126Z,44.64
2019-01-19T06:58:09.088Z,44.74
2019-01-19T07:00:41.210Z,44.97
2019-01-19T07:03:12.338Z,45.10
2019-01-19T07:05:43.598Z,45.15
2019-01-19T07:08:15.552Z,45.35
2019-01-19T07:11:00.879Z,45.31
2019-01-19T07:13:32.955Z,45.32
2019-01-19T07:16:08.668Z,45.26
2019-01-19T07:18:40.920Z,45.43
2019-01-19T07:21:12.987Z,45.73
2019-01-19T07:23:46.343Z,45.52
2019-01-19T07:26:19.507Z,45.32
2019-01-19T07:28:56.252Z,45.31
2019-01-19T07:31:28.245Z,45.17
2019-01-19T07:34:02.760Z,44.87
2019-01-19T07:36:36.417Z,44.59
2019-01-19T07:39:09.001Z,44.56
2019-01-19T07:41:40.991Z,44.41
2019-01-19T07:44:15.696Z,44.25
2019-01-19T07:46:47.186Z,43.92
2019-01-19T07:49:22.167Z,43.65
2019-01-19T07:51:54.247Z,43.65
2019-01-19T07:54:26.571Z,43.72
2019-01-19T07:56:57.722Z,43.51
2019-01-19T07:59:28.955Z,43.27
2019-01-19T08:02:02.636Z,42.94
2019-01-19T08:04:33.619Z,42.57
2019-01-19T08:07:06.037Z,42.23
2019-01-19T08:09:37.348Z,41.71
2019-01-19T08:12:08.473Z,41.40
2019-01-19T08:14:41.173Z,41.29
2019-01-19T08:17:12.659Z,41.39
2019-01-19T08:19:45.313Z,41.36
2019-01-19T08:22:16.582Z,41.13
2019-01-19T08:24:48.176Z,41.20
2019-01-19T08:27:19.639Z,41.29
2019-01-19T08:29:52.230Z,41.14
2019-01-19T08:32:27.408Z,41.17
2019-01-19T08:34:58.639Z,41.02
2019-01-19T08:37:33.183Z,41.15
2019-01-19T08:40:05.461Z,40.99
2019-01-19T08:42:40.998Z,40.76
2019-01-19T08:45:16.047Z,40.12
2019-01-19T08:47:48.138Z,39.59
2019-01-19T08:50:24.094Z,39.25
2019-01-19T08:52:56.698Z,39.00
2019-01-19T08:55:31.102Z,39.00
2019-01-19T08:58:03.475Z,38.83
2019-01-19T09:00:38.741Z,39.01
2019-01-19T09:03:12.175Z,38.76
2019-01-19T09:06:01.020Z,38.76
2019-01-19T09:08:32.194Z,38.89
2019-01-19T09:11:03.682Z,38.83
2019-01-19T09:13:35.271Z,38.85
2019-01-19T09:16:15.972Z,39.17
2019-01-19T09:18:51.139Z,38.76
2019-01-19T09:21:34.233Z,38.91
2019-01-19T09:24:17.564Z,38.73
2019-01-19T09:26:59.194Z,39.45
2019-01-19T09:29:26.279Z,39.45
2019-01-19T09:32:02.324Z,39.06
2019-01-19T09:34:36.251Z,38.57
2019-01-19T09:37:10.221Z,38.03
2019-01-19T09:39:43.011Z,38.27
2019-01-19T09:42:14.456Z,38.57
2019-01-19T09:44:50.232Z,38.66
2019-01-19T09:47:24.090Z,38.87
2019-01-19T09:50:02.790Z,39.28
2019-01-19T09:52:37.680Z,39.16
2019-01-19T09:55:15.633Z,39.43
2019-01-19T09:57:50.752Z,39.45
2019-01-19T10:00:35.484Z,39.49
2019-01-19T10:03:05.373Z,38.87
2019-01-19T10:05:43.853Z,38.48
2019-01-19T10:08:19.173Z,38.48
2019-01-19T10:10:53.167Z,39.03
2019-01-19T10:13:24.375Z,38.85
2019-01-19T10:16:01.197Z,38.61
2019-01-19T10:18:32.514Z,39.15
2019-01-19T10:21:08.419Z,39.37
2019-01-19T10:23:41.869Z,39.42
2019-01-19T10:26:12.243Z,38.75
2019-01-19T10:28:45.058Z,38.26
2019-01-19T10:31:17.467Z,36.68
2019-01-19T10:33:51.104Z,37.15
2019-01-19T10:36:22.643Z,37.22
2019-01-19T10:38:55.260Z,37.56
2019-01-19T10:41:26.805Z,37.72
2019-01-19T10:44:05.365Z,37.92
2019-01-19T10:46:36.511Z,37.47
2019-01-19T10:49:09.829Z,36.57
2019-01-19T10:51:41.404Z,36.78
2019-01-19T10:54:13.093Z,36.60
2019-01-19T10:56:51.616Z,36.56
2019-01-19T10:59:26.998Z,35.66
2019-01-19T11:01:58.731Z,35.66
2019-01-19T11:04:29.114Z,36.25
2019-01-19T11:07:03.370Z,36.57
2019-01-19T11:09:38.029Z,36.20
2019-01-19T11:12:13.400Z,35.06
2019-01-19T11:14:48.851Z,35.39
2019-01-19T11:17:22.770Z,35.47
2019-01-19T11:19:57.070Z,35.03
2019-01-19T11:22:28.629Z,35.40
2019-01-19T11:24:59.933Z,35.08
2019-01-19T11:27:45.277Z,34.29
2019-01-19T11:30:27.053Z,35.21
2019-01-19T11:32:59.141Z,34.97
2019-01-19T11:35:35.370Z,35.22
2019-01-19T11:38:20.205Z,34.98
2019-01-19T11:40:49.211Z,35.93
2019-01-19T11:43:20.237Z,35.70
2019-01-19T11:45:50.698Z,35.32
2019-01-19T11:48:21.174Z,35.27
2019-01-19T11:50:52.442Z,35.17
2019-01-19T11:53:24.361Z,34.83
2019-01-19T11:55:58.246Z,34.83
2019-01-19T11:58:34.695Z,35.18
2019-01-19T12:01:08.644Z,34.82
2019-01-19T12:03:41.197Z,35.02
2019-01-19T12:06:14.298Z,35.54
2019-01-19T12:08:48.652Z,35.37
2019-01-19T12:11:22.067Z,35.59
2019-01-19T12:13:55.473Z,35.59
2019-01-19T12:16:27.150Z,35.69
2019-01-19T12:19:04.471Z,35.35
2019-01-19T12:21:42.756Z,35.13
2019-01-19T12:24:13.941Z,35.18
2019-01-19T12:26:44.393Z,35.38
2019-01-19T12:29:23.221Z,35.83
2019-01-19T12:31:56.181Z,35.76
2019-01-19T12:34:34.896Z,36.09
2019-01-19T12:37:15.341Z,35.47
2019-01-19T12:39:49.518Z,35.19
2019-01-19T12:42:27.353Z,34.75
2019-01-19T12:44:58.704Z,34.84
2019-01-19T12:47:46.228Z,34.66
2019-01-19T12:50:52.561Z,34.27
2019-01-19T12:53:30.570Z,34.50
2019-01-19T12:57:08.283Z,34.37
2019-01-19T13:00:08.021Z,33.58
2019-01-19T13:02:56.754Z,33.51
2019-01-19T13:05:55.405Z,33.32
2019-01-19T13:08:34.562Z,33.41
2019-01-19T13:12:21.098Z,33.46
2019-01-19T13:15:27.968Z,33.27
2019-01-19T13:18:43.504Z,33.84
2019-01-19T13:22:03.223Z,33.76
2019-01-19T13:24:59.096Z,33.67
2019-01-19T13:27:51.281Z,33.73
2019-01-19T13:31:12.522Z,34.03
2019-01-19T13:34:32.495Z,33.39
2019-01-19T13:37:49.277Z,33.34
2019-01-19T13:40:58.475Z,33.47
2019-01-19T13:44:21.018Z,33.62
2019-01-19T13:47:22.272Z,33.06
2019-01-19T13:50:46.269Z,33.74
2019-01-19T13:53:50.376Z,33.83
2019-01-19T13:57:10.047Z,33.81
2019-01-19T14:00:43.659Z,33.60
2019-01-19T14:03:40.423Z,33.52
2019-01-19T14:07:12.703Z,33.80
2019-01-19T14:10:18.295Z,34.09
2019-01-19T14:13:44.851Z,34.45
2019-01-19T14:16:43.624Z,34.04
2019-01-19T14:19:57.807Z,33.42
2019-01-19T14:23:09.543Z,33.31
2019-01-19T14:26:49.077Z,33.77
2019-01-19T14:29:49.717Z,33.48
2019-01-19T14:32:50.604Z,34.05
2019-01-19T14:35:38.943Z,34.17
2019-01-19T14:38:37.113Z,34.37
2019-01-19T14:41:48.471Z,34.07
2019-01-19T14:45:13.926Z,34.30
2019-01-19T14:48:38.497Z,34.20
2019-01-19T14:52:02.203Z,34.67
2019-01-19T14:55:36.373Z,34.69
2019-01-19T14:58:35.593Z,34.80
2019-01-19T15:01:52.694Z,35.01
2019-01-19T15:05:04.447Z,34.92
2019-01-19T15:07:54.169Z,35.40
2019-01-19T15:11:14.535Z,35.54
2019-01-19T15:14:23.191Z,35.45
2019-01-19T15:17:33.195Z,36.06
2019-01-19T15:20:28.182Z,36.06
2019-01-19T15:23:36.000Z,35.63
2019-01-19T15:27:06.340Z,35.32
2019-01-19T15:30:00.457Z,35.57
2019-01-19T15:33:08.362Z,35.71
2019-01-19T15:36:25.410Z,35.84
2019-01-19T15:39:28.988Z,36.10
2019-01-19T15:42:30.253Z,35.84
2019-01-19T15:45:35.467Z,36.24
2019-01-19T15:49:09.033Z,36.44
2019-01-19T15:53:00.359Z,36.46
2019-01-19T15:56:20.315Z,36.76
2019-01-19T15:59:30.289Z,36.99
2019-01-19T16:02:57.003Z,37.22
2019-01-19T16:06:17.410Z,37.35
2019-01-19T16:09:27.473Z,37.42
2019-01-19T16:12:19.952Z,37.56
2019-01-19T16:15:15.849Z,37.67
2019-01-19T16:18:13.807Z,37.72
2019-01-19T16:21:27.288Z,37.96
2019-01-19T16:24:24.649Z,37.80
2019-01-19T16:27:27.863Z,38.18
2019-01-19T16:30:55.107Z,38.02
2019-01-19T16:33:50.900Z,38.07
2019-01-19T16:37:06.730Z,38.37
2019-01-19T16:40:17.124Z,38.33
2019-01-19T16:43:31.267Z,39.06
2019-01-19T16:46:44.887Z,39.63
2019-01-19T16:49:46.035Z,39.63
2019-01-19T16:52:38.971Z,39.79
2019-01-19T16:55:55.875Z,40.04
2019-01-19T16:58:52.588Z,40.22
2019-01-19T17:02:08.725Z,40.27
2019-01-19T17:05:22.283Z,40.27
2019-01-19T17:08:38.176Z,40.53
2019-01-19T17:11:50.066Z,40.44
2019-01-19T17:15:13.198Z,40.75
2019-01-19T17:18:28.585Z,40.93
2019-01-19T17:21:41.516Z,40.99
2019-01-19T17:25:05.155Z,40.86
2019-01-19T17:28:14.358Z,40.90
2019-01-19T17:31:27.464Z,40.81
2019-01-19T17:34:52.643Z,41.07
2019-01-19T17:37:36.755Z,41.11
2019-01-19T17:40:46.741Z,41.15
2019-01-19T17:43:42.740Z,41.08
2019-01-19T17:47:00.706Z,41.09
2019-01-19T17:50:01.800Z,41.25
2019-01-19T17:53:03.078Z,41.09
2019-01-19T17:56:14.507Z,41.24
2019-01-19T17:59:20.347Z,41.37
2019-01-19T18:02:35.095Z,41.44
2019-01-19T18:05:50.140Z,41.66
2019-01-19T18:08:47.526Z,41.41
2019-01-19T18:11:56.430Z,41.08
2019-01-19T18:15:16.748Z,40.89
2019-01-19T18:18:26.285Z,40.84
2019-01-19T18:21:27.171Z,40.92
2019-01-19T18:24:26.073Z,41.01
2019-01-19T18:27:45.736Z,41.00
2019-01-19T18:30:40.325Z,41.05
2019-01-19T18:33:44.519Z,41.21
2019-01-19T18:36:54.686Z,41.17
2019-01-19T18:39:57.164Z,41.22
2019-01-19T18:43:09.182Z,41.23
2019-01-19T18:46:13.714Z,41.37
2019-01-19T18:49:21.580Z,41.51
2019-01-19T18:52:39.231Z,41.18
2019-01-19T18:55:47.492Z,41.09
2019-01-19T18:59:06.033Z,41.15
2019-01-19T19:02:17.001Z,40.95
2019-01-19T19:05:35.122Z,40.72
2019-01-19T19:08:31.223Z,40.59
2019-01-19T19:11:54.787Z,40.56
2019-01-19T19:14:35.102Z,40.60
2019-01-19T19:17:57.558Z,40.72
2019-01-19T19:21:07.691Z,40.64
2019-01-19T19:24:07.670Z,40.37
2019-01-19T19:27:02.764Z,40.35
2019-01-19T19:30:15.101Z,40.36
2019-01-19T19:33:29.757Z,40.22
2019-01-19T19:36:49.428Z,40.03
2019-01-19T19:39:47.221Z,40.07
2019-01-19T19:43:25.977Z,40.11
2019-01-19T19:46:34.770Z,40.21
2019-01-19T19:49:48.401Z,39.83
2019-01-19T19:52:29.624Z,39.92
2019-01-19T19:55:12.531Z,39.92
2019-01-19T19:57:56.713Z,39.64
2019-01-19T20:01:03.608Z,39.54
2019-01-19T20:03:51.938Z,39.38
2019-01-19T20:10:26.051Z,39.24
2019-01-19T20:13:07.350Z,39.31
2019-01-19T20:16:21.261Z,39.12
2019-01-19T20:19:09.292Z,38.89
2019-01-19T20:22:10.965Z,39.03
2019-01-19T20:24:59.608Z,39.02
2019-01-19T20:27:37.231Z,39.06
2019-01-19T20:30:37.463Z,39.07
2019-01-19T20:36:38.301Z,39.04
2019-01-19T20:39:16.197Z,39.36
2019-01-19T20:41:58.394Z,39.26
2019-01-19T20:44:32.542Z,39.43
2019-01-19T20:47:13.944Z,39.45
2019-01-19T20:50:06.531Z,39.29
2019-01-19T20:52:48.224Z,39.41
2019-01-19T20:55:45.929Z,39.17
2019-01-19T20:58:18.324Z,39.12
2019-01-19T21:00:56.078Z,39.22
2019-01-19T21:03:33.035Z,39.34
2019-01-19T21:06:10.172Z,39.30
2019-01-19T21:08:46.778Z,39.22
2019-01-19T21:11:22.378Z,39.27
2019-01-19T21:13:53.496Z,39.44
2019-01-19T21:16:28.010Z,39.55
2019-01-19T21:19:15.828Z,39.68
2019-01-19T21:21:48.573Z,39.79
2019-01-19T21:24:28.930Z,39.60
2019-01-19T21:27:07.703Z,39.51
2019-01-19T21:29:51.968Z,39.68
2019-01-19T21:32:26.104Z,39.69
2019-01-19T21:35:00.244Z,39.57
2019-01-19T21:37:33.475Z,39.64
2019-01-19T21:40:09.184Z,39.71
2019-01-19T21:42:50.164Z,39.70
2019-01-19T21:45:35.312Z,39.58
2019-01-19T21:48:13.537Z,39.58
2019-01-19T21:50:51.627Z,39.50
2019-01-19T21:53:29.779Z,39.52
2019-01-19T21:56:03.234Z,39.31
2019-01-19T21:58:34.446Z,39.22
2019-01-19T22:01:06.788Z,39.11
2019-01-19T22:03:45.839Z,39.02
2019-01-19T22:06:17.057Z,39.68
2019-01-19T22:08:51.350Z,39.68
2019-01-19T22:11:27.720Z,39.49
2019-01-19T22:14:04.140Z,39.35
2019-01-19T22:16:48.835Z,39.37
2019-01-19T22:19:24.529Z,39.62
2019-01-19T22:22:09.345Z,39.81
2019-01-19T22:24:39.661Z,39.70
2019-01-19T22:27:18.219Z,39.77
2019-01-19T22:29:52.100Z,39.63
2019-01-19T22:32:32.655Z,39.69
2019-01-19T22:35:16.119Z,39.83
2019-01-19T22:38:17.369Z,39.96
2019-01-19T22:40:53.679Z,39.75
2019-01-19T22:43:34.060Z,39.80
2019-01-19T22:46:06.132Z,39.93
2019-01-19T22:48:42.674Z,39.82
2019-01-19T22:51:14.560Z,39.85
2019-01-19T22:53:50.284Z,39.96
2019-01-19T22:56:22.804Z,39.89
2019-01-19T22:59:01.912Z,39.79
2019-01-19T23:01:55.205Z,39.64
2019-01-19T23:04:26.887Z,39.70
2019-01-19T23:06:59.179Z,39.70
2019-01-19T23:09:33.922Z,39.88
2019-01-19T23:12:07.781Z,39.83
2019-01-19T23:14:47.446Z,39.69
2019-01-19T23:17:19.412Z,39.61
2019-01-19T23:19:57.786Z,39.53
2019-01-19T23:22:39.639Z,39.55
2019-01-19T23:25:15.113Z,39.55
2019-01-19T23:27:57.241Z,39.49
2019-01-19T23:30:32.344Z,39.67
2019-01-19T23:33:07.172Z,39.77
2019-01-19T23:35:41.438Z,39.64
2019-01-19T23:38:26.114Z,39.58
2019-01-19T23:40:58.032Z,39.80
2019-01-19T23:43:29.354Z,39.81
2019-01-19T23:46:08.862Z,39.77
2019-01-19T23:48:42.955Z,40.02
2019-01-19T23:51:15.353Z,40.01
2019-01-19T23:53:50.851Z,39.85
2019-01-19T23:56:22.846Z,39.97
2019-01-19T23:58:57.175Z,40.06
